| time (UTC) | temp C | wind direction | speed KPH | gust KPH | rain 1hr cm | rain 24hr cm | rain mn cm | humidity % | barometer mb |
| 20260906051035 | 13 | 252 | 3.2 | 9.7 | 0.00 | 0.56 | 0.00 | 88 | 1016.8 |
| 20260906050057 | 12 | 169 | 1.6 | 9.7 | 0.00 | 0.56 | 0.00 | 87 | 1016.6 |
| 20260906045031 | 12 | 270 | 1.6 | 11.3 | 0.00 | 0.56 | 0.00 | 87 | 1016.7 |
| 20260906044010 | 12 | 290 | 3.2 | 9.7 | 0.00 | 0.56 | 0.00 | 87 | 1017.0 |
| 20260906042516 | 12 | 258 | 4.8 | 9.7 | 0.00 | 0.56 | 0.00 | 87 | 1016.6 |
| 20260906041554 | 12 | 225 | 6.4 | 11.3 | 0.00 | 0.56 | 0.00 | 87 | 1016.1 |
| 20260906040502 | 12 | 219 | 6.4 | 9.7 | 0.00 | 0.56 | 0.00 | 87 | 1015.8 |
| 20260906035500 | 12 | 223 | 9.7 | 24.1 | 0.00 | 0.56 | 0.00 | 86 | 1015.7 |
| 20260906034458 | 12 | 217 | 9.7 | 17.7 | 0.00 | 0.56 | 0.00 | 86 | 1015.5 |
| 20260906033516 | 12 | 217 | 9.7 | 22.5 | 0.00 | 0.56 | 0.00 | 86 | 1015.5 |
| 20260906032454 | 12 | 220 | 9.7 | 19.3 | 0.00 | 0.56 | 0.00 | 86 | 1015.4 |
| 20260906031452 | 12 | 221 | 9.7 | 19.3 | 0.00 | 0.56 | 0.00 | 86 | 1015.4 |
| 20260906030450 | 12 | 223 | 9.7 | 12.9 | 0.00 | 0.56 | 0.00 | 86 | 1015.3 |
| 20260906024445 | 13 | 218 | 9.7 | 12.9 | 0.00 | 0.56 | 0.00 | 86 | 1015.2 |
| 20260906023445 | 13 | 226 | 9.7 | 14.5 | 0.00 | 0.56 | 0.00 | 86 | 1015.2 |
| 20260906022442 | 13 | 224 | 11.3 | 14.5 | 0.00 | 0.56 | 0.00 | 86 | 1015.3 |
| 20260906021501 | 13 | 225 | 11.3 | 14.5 | 0.00 | 0.56 | 0.00 | 86 | 1015.3 |
| 20260906020438 | 13 | 227 | 11.3 | 17.7 | 0.00 | 0.56 | 0.00 | 86 | 1015.3 |
| 20260906015436 | 13 | 225 | 11.3 | 14.5 | 0.00 | 0.56 | 0.00 | 86 | 1015.3 |
| 20260906014454 | 13 | 224 | 12.9 | 22.5 | 0.00 | 0.56 | 0.00 | 86 | 1015.3 |
| 20260906013433 | 13 | 230 | 9.7 | 14.5 | 0.00 | 0.56 | 0.00 | 86 | 1015.4 |
| 20260906012429 | 13 | 230 | 9.7 | 17.7 | 0.00 | 0.56 | 0.00 | 86 | 1015.4 |
| 20260906011428 | 13 | 235 | 8.0 | 22.5 | 0.00 | 0.56 | 0.00 | 85 | 1015.4 |
| 20260906010426 | 13 | 227 | 6.4 | 14.5 | 0.00 | 0.56 | 0.00 | 85 | 1015.4 |
| 20260906005423 | 14 | 223 | 8.0 | 25.7 | 0.00 | 0.56 | 0.00 | 85 | 1015.5 |
| 20260906004421 | 14 | 218 | 6.4 | 19.3 | 0.00 | 0.56 | 0.00 | 85 | 1015.5 |
| 20260906003419 | 14 | 238 | 3.2 | 14.5 | 0.00 | 0.56 | 0.00 | 85 | 1015.6 |
| 20260906002417 | 14 | 236 | 4.8 | 17.7 | 0.00 | 0.56 | 0.00 | 85 | 1015.7 |
| 20260906001416 | 14 | 242 | 3.2 | 14.5 | 0.00 | 0.56 | 0.00 | 85 | 1015.7 |
| 20260906000434 | 15 | 249 | 3.2 | 12.9 | 0.00 | 0.56 | 0.00 | 85 | 1015.8 |
| 20260905235411 | 15 | 244 | 3.2 | 11.3 | 0.00 | 0.56 | 0.00 | 85 | 1015.7 |
| 20260905234430 | 15 | 233 | 3.2 | 14.5 | 0.00 | 0.56 | 0.00 | 85 | 1015.8 |
| 20260905233408 | 15 | 235 | 6.4 | 14.5 | 0.00 | 0.56 | 0.00 | 85 | 1015.9 |
| 20260905232406 | 15 | 223 | 4.8 | 11.3 | 0.00 | 0.56 | 0.00 | 85 | 1016.0 |
| 20260905231404 | 15 | 223 | 6.4 | 19.3 | 0.00 | 0.56 | 0.00 | 85 | 1016.0 |
| 20260905230402 | 15 | 223 | 4.8 | 9.7 | 0.00 | 0.56 | 0.00 | 86 | 1016.1 |
| 20260905225400 | 15 | 232 | 6.4 | 11.3 | 0.00 | 0.56 | 0.00 | 86 | 1016.0 |
| 20260905224357 | 15 | 231 | 6.4 | 11.3 | 0.00 | 0.56 | 0.00 | 86 | 1016.0 |
| 20260905223356 | 15 | 223 | 6.4 | 11.3 | 0.00 | 0.56 | 0.00 | 86 | 1016.0 |
| 20260905222354 | 15 | 212 | 9.7 | 19.3 | 0.00 | 0.56 | 0.00 | 86 | 1015.9 |
| 20260905221353 | 15 | 210 | 6.4 | 16.1 | 0.00 | 0.56 | 0.00 | 86 | 1015.9 |
| 20260905220349 | 15 | 214 | 8.0 | 38.6 | 0.00 | 0.56 | 0.00 | 86 | 1015.7 |
| 20260905215407 | 15 | 207 | 8.0 | 20.9 | 0.00 | 0.56 | 0.00 | 86 | 1015.7 |
| 20260905214406 | 15 | 218 | 6.4 | 14.5 | 0.00 | 0.56 | 0.00 | 86 | 1015.7 |
| 20260905213345 | 15 | 218 | 6.4 | 14.5 | 0.00 | 0.56 | 0.00 | 86 | 1015.6 |
| 20260905212342 | 15 | 222 | 6.4 | 32.2 | 0.00 | 0.56 | 0.00 | 86 | 1015.4 |
| 20260905211339 | 15 | 270 | 4.8 | 14.5 | 0.00 | 0.56 | 0.00 | 85 | 1015.4 |
| 20260905210338 | 15 | 262 | 4.8 | 24.1 | 0.00 | 0.56 | 0.00 | 85 | 1015.3 |
| 20260905205356 | 15 | 205 | 6.4 | 17.7 | 0.00 | 0.56 | 0.56 | 85 | 1015.2 |
| 20260905204333 | 15 | 225 | 9.7 | 29.0 | 0.00 | 0.56 | 0.56 | 85 | 1015.1 |
| 20260905203332 | 15 | 230 | 6.4 | 17.7 | 0.00 | 0.56 | 0.56 | 85 | 1015.0 |
| 20260905202329 | 15 | 221 | 4.8 | 9.7 | 0.00 | 0.56 | 0.56 | 85 | 1014.9 |
| 20260905201327 | 15 | 235 | 4.8 | 17.7 | 0.00 | 0.56 | 0.56 | 85 | 1014.9 |
| 20260905200345 | 15 | 231 | 3.2 | 14.5 | 0.00 | 0.56 | 0.56 | 84 | 1015.0 |
| 20260905195324 | 15 | 297 | 3.2 | 12.9 | 0.00 | 0.56 | 0.56 | 84 | 1014.9 |
| 20260905185813 | 15 | 295 | 9.7 | 17.7 | 0.00 | 0.56 | 0.56 | 84 | 1014.9 |
| 20260905184810 | 15 | 295 | 9.7 | 17.7 | 0.00 | 0.56 | 0.56 | 84 | 1015.0 |
| 20260905183808 | 15 | 285 | 9.7 | 19.3 | 0.00 | 0.56 | 0.56 | 84 | 1014.8 |
| 20260905182807 | 15 | 274 | 11.3 | 24.1 | 0.00 | 0.56 | 0.56 | 84 | 1014.7 |
| 20260905181805 | 15 | 270 | 12.9 | 29.0 | 0.13 | 0.56 | 0.56 | 82 | 1014.5 |
| 20260905180837 | 16 | 261 | 14.5 | 22.5 | 0.53 | 0.56 | 0.56 | 82 | 1014.4 |
| 20260905175801 | 16 | 267 | 11.3 | 19.3 | 0.56 | 0.56 | 0.56 | 80 | 1014.3 |
| 20260905174759 | 16 | 261 | 9.7 | 19.3 | 0.56 | 0.56 | 0.56 | 78 | 1014.2 |
| 20260905173756 | 16 | 255 | 11.3 | 24.1 | 0.56 | 0.56 | 0.56 | 77 | 1014.2 |
| 20260905172755 | 17 | 265 | 11.3 | 20.9 | 0.56 | 0.56 | 0.56 | 73 | 1013.5 |
| 20260905171753 | 18 | 295 | 17.7 | 35.4 | 0.46 | 0.46 | 0.46 | 69 | 1013.6 |
| 20260905170751 | 18 | 311 | 9.7 | 20.9 | 0.03 | 0.03 | 0.03 | 67 | 1013.8 |
| 20260905165750 | 19 | 304 | 9.7 | 27.4 | 0.00 | 0.00 | 0.00 | 63 | 1014.1 |
| 20260905164747 | 20 | 306 | 11.3 | 33.8 | 0.00 | 0.00 | 0.00 | 60 | 1014.1 |
| 20260905163744 | 20 | 311 | 8.0 | 25.7 | 0.00 | 0.00 | 0.00 | 57 | 1013.1 |
| 20260905162742 | 20 | 303 | 6.4 | 12.9 | 0.00 | 0.00 | 0.00 | 57 | 1013.2 |
| 20260905161800 | 20 | 312 | 9.7 | 20.9 | 0.00 | 0.00 | 0.00 | 56 | 1012.8 |
| 20260905160758 | 20 | 309 | 9.7 | 20.9 | 0.00 | 0.00 | 0.00 | 55 | 1012.9 |
| 20260905155757 | 20 | 307 | 11.3 | 24.1 | 0.00 | 0.00 | 0.00 | 54 | 1012.7 |
| 20260905154734 | 21 | 311 | 11.3 | 38.6 | 0.00 | 0.00 | 0.00 | 52 | 1012.8 |
| 20260905153753 | 21 | 309 | 14.5 | 30.6 | 0.00 | 0.00 | 0.00 | 52 | 1012.9 |
| 20260905152751 | 22 | 313 | 11.3 | 27.4 | 0.00 | 0.00 | 0.00 | 52 | 1012.6 |
| 20260905151748 | 22 | 310 | 11.3 | 22.5 | 0.00 | 0.00 | 0.00 | 51 | 1012.4 |
| 20260905150727 | 23 | 310 | 12.9 | 35.4 | 0.00 | 0.00 | 0.00 | 50 | 1012.3 |
| 20260905145745 | 23 | 317 | 11.3 | 24.1 | 0.00 | 0.00 | 0.00 | 51 | 1012.0 |
| 20260905144723 | 24 | 312 | 12.9 | 32.2 | 0.00 | 0.00 | 0.00 | 50 | 1011.8 |
| 20260905143741 | 25 | 320 | 12.9 | 27.4 | 0.00 | 0.00 | 0.00 | 48 | 1011.7 |
| 20260905142719 | 26 | 311 | 12.9 | 22.5 | 0.00 | 0.00 | 0.00 | 46 | 1011.8 |
| 20260905141717 | 28 | 312 | 12.9 | 25.7 | 0.00 | 0.00 | 0.00 | 43 | 1011.4 |
| 20260905140715 | 30 | 319 | 11.3 | 20.9 | 0.00 | 0.00 | 0.00 | 44 | 1010.9 |
| 20260905135712 | 31 | 303 | 11.3 | 25.7 | 0.00 | 0.00 | 0.00 | 42 | 1010.7 |
| 20260905134730 | 31 | 293 | 8.0 | 25.7 | 0.00 | 0.00 | 0.00 | 41 | 1010.6 |
| 20260905133708 | 31 | 270 | 4.8 | 11.3 | 0.00 | 0.00 | 0.00 | 41 | 1010.2 |
| 20260905132706 | 32 | 270 | 3.2 | 11.3 | 0.00 | 0.00 | 0.00 | 40 | 1010.1 |
| 20260905131724 | 32 | 251 | 1.6 | 29.0 | 0.00 | 0.00 | 0.00 | 41 | 1010.0 |
| 20260905130703 | 31 | 317 | 1.6 | 6.4 | 0.00 | 0.00 | 0.00 | 42 | 1010.1 |
| 20260905125721 | 31 | 253 | 3.2 | 9.7 | 0.00 | 0.00 | 0.00 | 39 | 1010.2 |
| 20260905124658 | 32 | 251 | 4.8 | 9.7 | 0.00 | 0.00 | 0.00 | 39 | 1010.3 |
| 20260905123656 | 32 | 270 | 1.6 | 6.4 | 0.00 | 0.00 | 0.00 | 40 | 1010.3 |
| 20260905122655 | 32 | 270 | 3.2 | 27.4 | 0.00 | 0.00 | 0.00 | 39 | 1010.4 |
| 20260905121712 | 32 | 235 | 6.4 | 12.9 | 0.00 | 0.00 | 0.00 | 39 | 1010.4 |
| 20260905120650 | 31 | 270 | 1.6 | 3.2 | 0.00 | 0.00 | 0.00 | 42 | 1010.6 |
| 20260905115728 | 31 | 257 | 3.2 | 11.3 | 0.00 | 0.00 | 0.00 | 43 | 1010.6 |
| 20260905114707 | 30 | 270 | 3.2 | 19.3 | 0.00 | 0.00 | 0.00 | 43 | 1010.7 |
| 20260905113645 | 30 | 223 | 3.2 | 27.4 | 0.00 | 0.00 | 0.00 | 44 | 1010.9 |
| 20260905112643 | 30 | 257 | 3.2 | 8.0 | 0.00 | 0.00 | 0.00 | 43 | 1010.9 |
| 20260905111640 | 29 | 235 | 3.2 | 14.5 | 0.00 | 0.00 | 0.00 | 44 | 1010.8 |
| 20260905110640 | 29 | 243 | 3.2 | 9.7 | 0.00 | 0.00 | 0.00 | 43 | 1010.8 |
| 20260905105639 | 30 | 229 | 4.8 | 12.9 | 0.00 | 0.00 | 0.00 | 43 | 1010.7 |
| 20260905104635 | 30 | 253 | 3.2 | 25.7 | 0.00 | 0.00 | 0.00 | 43 | 1010.9 |
| 20260905103632 | 30 | 253 | 3.2 | 9.7 | 0.00 | 0.00 | 0.00 | 44 | 1011.0 |
| 20260905102630 | 29 | 254 | 3.2 | 9.7 | 0.00 | 0.00 | 0.00 | 43 | 1011.1 |
| 20260905101628 | 30 | 236 | 6.4 | 14.5 | 0.00 | 0.00 | 0.00 | 42 | 1011.1 |
| 20260905100627 | 30 | 244 | 4.8 | 9.7 | 0.00 | 0.00 | 0.00 | 42 | 1011.1 |
| 20260905095644 | 30 | 247 | 4.8 | 12.9 | 0.00 | 0.00 | 0.00 | 43 | 1011.2 |
| 20260905094622 | 29 | 251 | 3.2 | 11.3 | 0.00 | 0.00 | 0.00 | 44 | 1011.3 |
| 20260905093620 | 28 | 234 | 4.8 | 11.3 | 0.00 | 0.00 | 0.00 | 45 | 1011.1 |
| 20260905092627 | 28 | 222 | 6.4 | 33.8 | 0.00 | 0.00 | 0.00 | 45 | 1011.3 |
| 20260905085222 | 28 | 251 | 4.8 | 16.1 | 0.00 | 0.00 | 0.00 | 46 | 1011.5 |
| 20260905084221 | 27 | 243 | 3.2 | 9.7 | 0.00 | 0.00 | 0.00 | 47 | 1011.6 |
| 20260905083219 | 27 | 243 | 3.2 | 11.3 | 0.00 | 0.00 | 0.00 | 48 | 1011.7 |
| 20260905082217 | 27 | 223 | 4.8 | 14.5 | 0.00 | 0.00 | 0.00 | 49 | 1011.8 |
| 20260905081214 | 26 | 240 | 3.2 | 12.9 | 0.00 | 0.00 | 0.00 | 50 | 1011.9 |
| 20260905080212 | 26 | 239 | 3.2 | 11.3 | 0.00 | 0.00 | 0.00 | 50 | 1012.1 |
| 20260905075211 | 26 | 228 | 6.4 | 14.5 | 0.00 | 0.00 | 0.00 | 50 | 1012.1 |
| 20260905074209 | 26 | 234 | 4.8 | 14.5 | 0.00 | 0.00 | 0.00 | 51 | 1012.2 |
| 20260905073207 | 25 | 225 | 6.4 | 16.1 | 0.00 | 0.00 | 0.00 | 53 | 1012.2 |
| 20260905072204 | 25 | 234 | 3.2 | 9.7 | 0.00 | 0.00 | 0.00 | 54 | 1012.1 |
| 20260905071202 | 24 | 236 | 3.2 | 9.7 | 0.00 | 0.00 | 0.00 | 55 | 1012.1 |
| 20260905070201 | 23 | 226 | 4.8 | 25.7 | 0.00 | 0.00 | 0.00 | 57 | 1012.3 |
| 20260905065219 | 23 | 236 | 3.2 | 9.7 | 0.00 | 0.00 | 0.00 | 59 | 1012.5 |
| 20260905064208 | 22 | 243 | 3.2 | 9.7 | 0.00 | 0.00 | 0.00 | 61 | 1012.3 |
| 20260905063215 | 21 | 244 | 3.2 | 11.3 | 0.00 | 0.00 | 0.00 | 63 | 1012.3 |
| 20260905062152 | 20 | 242 | 3.2 | 9.7 | 0.00 | 0.00 | 0.00 | 66 | 1012.3 |
| 20260905061151 | 19 | 228 | 3.2 | 27.4 | 0.00 | 0.00 | 0.00 | 68 | 1012.3 |
| 20260905060208 | 18 | 237 | 3.2 | 12.9 | 0.00 | 0.00 | 0.00 | 69 | 1012.3 |
| 20260905055147 | 17 | 234 | 3.2 | 9.7 | 0.00 | 0.00 | 0.00 | 70 | 1012.3 |
| 20260905054145 | 17 | 228 | 3.2 | 29.0 | 0.00 | 0.00 | 0.00 | 70 | 1012.4 |
| 20260905053142 | 17 | 220 | 1.6 | 3.2 | 0.00 | 0.00 | 0.00 | 70 | 1012.3 |
| 20260905052140 | 17 | 228 | 1.6 | 16.1 | 0.00 | 0.00 | 0.00 | 70 | 1012.3 |